sensor_id;sensor_type;location;lat;lon;timestamp;temperature;humidity
32536;DHT22;18974;50.838;4.636;2023-04-12T00:01:41;9.40;99.90
32536;DHT22;18974;50.838;4.636;2023-04-12T00:04:07;9.40;99.90
32536;DHT22;18974;50.838;4.636;2023-04-12T00:06:32;9.40;99.90
32536;DHT22;18974;50.838;4.636;2023-04-12T00:09:02;9.40;99.90
32536;DHT22;18974;50.838;4.636;2023-04-12T00:11:30;9.30;99.90
32536;DHT22;18974;50.838;4.636;2023-04-12T00:13:56;9.40;99.90
32536;DHT22;18974;50.838;4.636;2023-04-12T00:16:22;9.40;99.90
32536;DHT22;18974;50.838;4.636;2023-04-12T00:18:49;9.40;99.90
32536;DHT22;18974;50.838;4.636;2023-04-12T00:21:16;9.40;99.90
32536;DHT22;18974;50.838;4.636;2023-04-12T00:23:47;9.40;99.90
32536;DHT22;18974;50.838;4.636;2023-04-12T00:26:14;9.40;99.90
32536;DHT22;18974;50.838;4.636;2023-04-12T00:28:40;9.50;99.90
32536;DHT22;18974;50.838;4.636;2023-04-12T00:31:06;9.40;99.90
32536;DHT22;18974;50.838;4.636;2023-04-12T00:33:33;9.50;99.90
32536;DHT22;18974;50.838;4.636;2023-04-12T00:35:59;9.50;99.90
32536;DHT22;18974;50.838;4.636;2023-04-12T00:38:25;9.60;99.90
32536;DHT22;18974;50.838;4.636;2023-04-12T00:40:51;9.50;99.90
32536;DHT22;18974;50.838;4.636;2023-04-12T00:43:17;9.50;99.90
32536;DHT22;18974;50.838;4.636;2023-04-12T00:45:46;9.40;99.90
32536;DHT22;18974;50.838;4.636;2023-04-12T00:48:12;9.40;99.90
32536;DHT22;18974;50.838;4.636;2023-04-12T00:50:39;9.50;99.90
32536;DHT22;18974;50.838;4.636;2023-04-12T00:53:10;9.50;99.90
32536;DHT22;18974;50.838;4.636;2023-04-12T00:55:39;9.40;99.90
32536;DHT22;18974;50.838;4.636;2023-04-12T00:58:05;9.40;99.90
32536;DHT22;18974;50.838;4.636;2023-04-12T01:00:32;9.40;99.90
32536;DHT22;18974;50.838;4.636;2023-04-12T01:02:58;9.30;99.90
32536;DHT22;18974;50.838;4.636;2023-04-12T01:05:26;9.30;99.90
32536;DHT22;18974;50.838;4.636;2023-04-12T01:15:38;9.20;99.90
32536;DHT22;18974;50.838;4.636;2023-04-12T01:18:13;9.20;99.90
32536;DHT22;18974;50.838;4.636;2023-04-12T01:20:44;9.30;99.90
32536;DHT22;18974;50.838;4.636;2023-04-12T01:23:46;9.30;99.90
32536;DHT22;18974;50.838;4.636;2023-04-12T01:26:29;9.30;99.90
32536;DHT22;18974;50.838;4.636;2023-04-12T01:28:58;9.20;99.90
32536;DHT22;18974;50.838;4.636;2023-04-12T01:31:26;9.20;99.90
32536;DHT22;18974;50.838;4.636;2023-04-12T01:33:53;9.20;99.90
32536;DHT22;18974;50.838;4.636;2023-04-12T01:36:21;9.20;99.90
32536;DHT22;18974;50.838;4.636;2023-04-12T01:38:49;9.20;99.90
32536;DHT22;18974;50.838;4.636;2023-04-12T01:41:15;9.20;99.90
32536;DHT22;18974;50.838;4.636;2023-04-12T01:43:44;9.30;99.90
32536;DHT22;18974;50.838;4.636;2023-04-12T01:46:12;9.10;99.90
32536;DHT22;18974;50.838;4.636;2023-04-12T01:48:40;9.20;99.90
32536;DHT22;18974;50.838;4.636;2023-04-12T01:54:01;9.10;99.90
32536;DHT22;18974;50.838;4.636;2023-04-12T01:56:30;9.10;99.90
32536;DHT22;18974;50.838;4.636;2023-04-12T01:58:58;9.20;99.90
32536;DHT22;18974;50.838;4.636;2023-04-12T02:01:25;9.20;99.90
32536;DHT22;18974;50.838;4.636;2023-04-12T02:03:54;9.20;99.90
32536;DHT22;18974;50.838;4.636;2023-04-12T02:06:21;9.30;99.90
32536;DHT22;18974;50.838;4.636;2023-04-12T02:08:48;9.20;99.90
32536;DHT22;18974;50.838;4.636;2023-04-12T02:11:14;9.30;99.90
32536;DHT22;18974;50.838;4.636;2023-04-12T02:13:39;9.20;99.90
32536;DHT22;18974;50.838;4.636;2023-04-12T02:16:06;9.20;99.90
32536;DHT22;18974;50.838;4.636;2023-04-12T02:18:32;9.20;99.90
32536;DHT22;18974;50.838;4.636;2023-04-12T02:21:00;9.30;99.90
32536;DHT22;18974;50.838;4.636;2023-04-12T02:23:25;9.40;99.90
32536;DHT22;18974;50.838;4.636;2023-04-12T02:25:51;9.40;99.90
32536;DHT22;18974;50.838;4.636;2023-04-12T02:28:17;9.40;99.90
32536;DHT22;18974;50.838;4.636;2023-04-12T02:30:43;9.30;99.90
32536;DHT22;18974;50.838;4.636;2023-04-12T02:33:09;9.40;99.90
32536;DHT22;18974;50.838;4.636;2023-04-12T02:35:36;9.30;99.90
32536;DHT22;18974;50.838;4.636;2023-04-12T02:38:01;9.40;99.90
32536;DHT22;18974;50.838;4.636;2023-04-12T02:40:28;9.50;99.90
32536;DHT22;18974;50.838;4.636;2023-04-12T02:42:54;9.40;99.90
32536;DHT22;18974;50.838;4.636;2023-04-12T02:45:20;9.50;99.90
32536;DHT22;18974;50.838;4.636;2023-04-12T02:47:46;9.40;99.90
32536;DHT22;18974;50.838;4.636;2023-04-12T02:50:11;9.40;99.90
32536;DHT22;18974;50.838;4.636;2023-04-12T02:52:37;9.40;99.90
32536;DHT22;18974;50.838;4.636;2023-04-12T02:55:03;9.40;99.90
32536;DHT22;18974;50.838;4.636;2023-04-12T02:57:29;9.30;99.90
32536;DHT22;18974;50.838;4.636;2023-04-12T02:59:54;9.30;99.90
32536;DHT22;18974;50.838;4.636;2023-04-12T03:02:21;9.30;99.90
32536;DHT22;18974;50.838;4.636;2023-04-12T03:04:47;9.30;99.90
32536;DHT22;18974;50.838;4.636;2023-04-12T03:07:19;9.30;99.90
32536;DHT22;18974;50.838;4.636;2023-04-12T03:09:49;9.30;99.90
32536;DHT22;18974;50.838;4.636;2023-04-12T03:12:15;9.30;99.90
32536;DHT22;18974;50.838;4.636;2023-04-12T03:14:41;9.40;99.90
32536;DHT22;18974;50.838;4.636;2023-04-12T03:17:08;9.40;99.90
32536;DHT22;18974;50.838;4.636;2023-04-12T03:19:33;9.40;99.90
32536;DHT22;18974;50.838;4.636;2023-04-12T03:22:01;9.30;99.90
32536;DHT22;18974;50.838;4.636;2023-04-12T03:24:28;9.40;99.90
32536;DHT22;18974;50.838;4.636;2023-04-12T03:26:54;9.20;99.90
32536;DHT22;18974;50.838;4.636;2023-04-12T03:29:19;9.30;99.90
32536;DHT22;18974;50.838;4.636;2023-04-12T03:31:46;9.30;99.90
32536;DHT22;18974;50.838;4.636;2023-04-12T03:34:12;9.30;99.90
32536;DHT22;18974;50.838;4.636;2023-04-12T03:36:38;9.40;99.90
32536;DHT22;18974;50.838;4.636;2023-04-12T03:39:03;9.40;99.90
32536;DHT22;18974;50.838;4.636;2023-04-12T03:41:29;9.40;99.90
32536;DHT22;18974;50.838;4.636;2023-04-12T03:43:55;9.40;99.90
32536;DHT22;18974;50.838;4.636;2023-04-12T03:46:21;9.50;99.90
32536;DHT22;18974;50.838;4.636;2023-04-12T03:48:47;9.60;99.90
32536;DHT22;18974;50.838;4.636;2023-04-12T03:51:13;9.50;99.90
32536;DHT22;18974;50.838;4.636;2023-04-12T03:53:40;9.60;99.90
32536;DHT22;18974;50.838;4.636;2023-04-12T03:56:06;9.60;99.90
32536;DHT22;18974;50.838;4.636;2023-04-12T03:58:32;9.50;99.90
32536;DHT22;18974;50.838;4.636;2023-04-12T04:01:04;9.50;99.90
32536;DHT22;18974;50.838;4.636;2023-04-12T04:03:34;9.40;99.90
32536;DHT22;18974;50.838;4.636;2023-04-12T04:06:01;9.50;99.90
32536;DHT22;18974;50.838;4.636;2023-04-12T04:08:27;9.60;99.90
32536;DHT22;18974;50.838;4.636;2023-04-12T04:10:55;9.60;99.90
32536;DHT22;18974;50.838;4.636;2023-04-12T04:13:20;9.50;99.90
32536;DHT22;18974;50.838;4.636;2023-04-12T04:15:50;9.50;99.90
32536;DHT22;18974;50.838;4.636;2023-04-12T04:18:16;9.50;99.90
32536;DHT22;18974;50.838;4.636;2023-04-12T04:20:41;9.60;99.90
32536;DHT22;18974;50.838;4.636;2023-04-12T04:23:07;9.60;99.90
32536;DHT22;18974;50.838;4.636;2023-04-12T04:25:34;9.50;99.90
32536;DHT22;18974;50.838;4.636;2023-04-12T04:28:05;9.60;99.90
32536;DHT22;18974;50.838;4.636;2023-04-12T04:30:32;9.70;99.90
32536;DHT22;18974;50.838;4.636;2023-04-12T04:32:58;9.70;99.90
32536;DHT22;18974;50.838;4.636;2023-04-12T04:35:24;9.70;99.90
32536;DHT22;18974;50.838;4.636;2023-04-12T04:37:50;9.50;99.90
32536;DHT22;18974;50.838;4.636;2023-04-12T04:40:17;9.50;99.90
32536;DHT22;18974;50.838;4.636;2023-04-12T04:42:45;9.50;99.90
32536;DHT22;18974;50.838;4.636;2023-04-12T04:45:19;9.50;99.90
32536;DHT22;18974;50.838;4.636;2023-04-12T04:47:46;9.50;99.90
32536;DHT22;18974;50.838;4.636;2023-04-12T04:50:12;9.50;99.90
32536;DHT22;18974;50.838;4.636;2023-04-12T04:52:37;9.50;99.90
32536;DHT22;18974;50.838;4.636;2023-04-12T04:55:04;9.40;99.90
32536;DHT22;18974;50.838;4.636;2023-04-12T04:57:29;9.50;99.90
32536;DHT22;18974;50.838;4.636;2023-04-12T04:59:55;9.50;99.90
32536;DHT22;18974;50.838;4.636;2023-04-12T05:02:21;9.60;99.90
32536;DHT22;18974;50.838;4.636;2023-04-12T05:04:46;9.50;99.90
32536;DHT22;18974;50.838;4.636;2023-04-12T05:07:12;9.50;99.90
32536;DHT22;18974;50.838;4.636;2023-04-12T05:09:38;9.50;99.90
32536;DHT22;18974;50.838;4.636;2023-04-12T05:12:04;9.60;99.90
32536;DHT22;18974;50.838;4.636;2023-04-12T05:14:30;9.60;99.90
32536;DHT22;18974;50.838;4.636;2023-04-12T05:16:55;9.60;99.90
32536;DHT22;18974;50.838;4.636;2023-04-12T05:19:21;9.80;99.90
32536;DHT22;18974;50.838;4.636;2023-04-12T05:21:47;9.70;99.90
32536;DHT22;18974;50.838;4.636;2023-04-12T05:24:12;9.70;99.90
32536;DHT22;18974;50.838;4.636;2023-04-12T05:26:38;9.80;99.90
32536;DHT22;18974;50.838;4.636;2023-04-12T05:29:03;9.70;99.90
32536;DHT22;18974;50.838;4.636;2023-04-12T05:31:30;9.80;99.90
32536;DHT22;18974;50.838;4.636;2023-04-12T05:33:56;9.80;99.90
32536;DHT22;18974;50.838;4.636;2023-04-12T05:36:22;9.80;99.90
32536;DHT22;18974;50.838;4.636;2023-04-12T05:38:48;9.80;99.90
32536;DHT22;18974;50.838;4.636;2023-04-12T05:41:13;9.90;99.90
32536;DHT22;18974;50.838;4.636;2023-04-12T05:43:39;9.90;99.90
32536;DHT22;18974;50.838;4.636;2023-04-12T05:46:05;9.90;99.90
32536;DHT22;18974;50.838;4.636;2023-04-12T05:48:33;10.00;99.90
32536;DHT22;18974;50.838;4.636;2023-04-12T05:51:00;10.10;99.90
32536;DHT22;18974;50.838;4.636;2023-04-12T05:53:26;10.10;99.90
32536;DHT22;18974;50.838;4.636;2023-04-12T05:55:54;10.20;99.90
32536;DHT22;18974;50.838;4.636;2023-04-12T05:58:19;10.30;99.90
32536;DHT22;18974;50.838;4.636;2023-04-12T06:00:45;10.30;99.90
32536;DHT22;18974;50.838;4.636;2023-04-12T06:03:11;10.30;99.90
32536;DHT22;18974;50.838;4.636;2023-04-12T06:05:37;10.40;99.90
32536;DHT22;18974;50.838;4.636;2023-04-12T06:08:03;10.40;99.90
32536;DHT22;18974;50.838;4.636;2023-04-12T06:10:29;10.40;99.90
32536;DHT22;18974;50.838;4.636;2023-04-12T06:12:55;10.50;99.90
32536;DHT22;18974;50.838;4.636;2023-04-12T06:15:21;10.50;99.90
32536;DHT22;18974;50.838;4.636;2023-04-12T06:17:47;10.40;99.90
32536;DHT22;18974;50.838;4.636;2023-04-12T06:20:12;10.50;99.90
32536;DHT22;18974;50.838;4.636;2023-04-12T06:22:38;10.40;99.90
32536;DHT22;18974;50.838;4.636;2023-04-12T06:25:04;10.40;99.90
32536;DHT22;18974;50.838;4.636;2023-04-12T06:27:30;10.50;99.90
32536;DHT22;18974;50.838;4.636;2023-04-12T06:29:56;10.50;99.90
32536;DHT22;18974;50.838;4.636;2023-04-12T06:32:22;10.60;99.90
32536;DHT22;18974;50.838;4.636;2023-04-12T06:34:47;10.60;99.90
32536;DHT22;18974;50.838;4.636;2023-04-12T06:37:13;10.60;99.90
32536;DHT22;18974;50.838;4.636;2023-04-12T06:39:39;10.70;99.90
32536;DHT22;18974;50.838;4.636;2023-04-12T06:42:05;10.70;99.90
32536;DHT22;18974;50.838;4.636;2023-04-12T06:44:30;10.70;99.90
32536;DHT22;18974;50.838;4.636;2023-04-12T06:46:58;10.70;99.90
32536;DHT22;18974;50.838;4.636;2023-04-12T06:49:23;10.70;99.90
32536;DHT22;18974;50.838;4.636;2023-04-12T06:51:49;10.70;99.90
32536;DHT22;18974;50.838;4.636;2023-04-12T06:54:15;10.80;99.90
32536;DHT22;18974;50.838;4.636;2023-04-12T06:56:41;10.80;99.90
32536;DHT22;18974;50.838;4.636;2023-04-12T06:59:06;10.80;99.90
32536;DHT22;18974;50.838;4.636;2023-04-12T07:01:32;10.90;99.90
32536;DHT22;18974;50.838;4.636;2023-04-12T07:03:58;10.80;99.90
32536;DHT22;18974;50.838;4.636;2023-04-12T07:06:24;10.80;99.90
32536;DHT22;18974;50.838;4.636;2023-04-12T07:08:49;10.90;99.90
32536;DHT22;18974;50.838;4.636;2023-04-12T07:11:15;10.80;99.90
32536;DHT22;18974;50.838;4.636;2023-04-12T07:13:41;10.90;99.90
32536;DHT22;18974;50.838;4.636;2023-04-12T07:16:07;11.00;99.90
32536;DHT22;18974;50.838;4.636;2023-04-12T07:18:32;10.90;99.90
32536;DHT22;18974;50.838;4.636;2023-04-12T07:20:58;10.90;99.90
32536;DHT22;18974;50.838;4.636;2023-04-12T07:23:24;10.90;99.90
32536;DHT22;18974;50.838;4.636;2023-04-12T07:25:52;11.00;99.90
32536;DHT22;18974;50.838;4.636;2023-04-12T07:28:18;11.00;99.90
32536;DHT22;18974;50.838;4.636;2023-04-12T07:30:44;10.90;99.90
32536;DHT22;18974;50.838;4.636;2023-04-12T07:33:10;10.90;99.90
32536;DHT22;18974;50.838;4.636;2023-04-12T07:35:35;10.70;99.90
32536;DHT22;18974;50.838;4.636;2023-04-12T07:38:01;10.80;99.90
32536;DHT22;18974;50.838;4.636;2023-04-12T07:40:27;10.70;99.90
32536;DHT22;18974;50.838;4.636;2023-04-12T07:42:52;10.80;99.90
32536;DHT22;18974;50.838;4.636;2023-04-12T07:45:19;10.90;99.90
32536;DHT22;18974;50.838;4.636;2023-04-12T07:47:45;11.00;99.90
32536;DHT22;18974;50.838;4.636;2023-04-12T07:50:10;10.90;99.90
32536;DHT22;18974;50.838;4.636;2023-04-12T07:52:37;11.00;99.90
32536;DHT22;18974;50.838;4.636;2023-04-12T07:55:05;11.10;99.90
32536;DHT22;18974;50.838;4.636;2023-04-12T07:57:31;11.20;99.90
32536;DHT22;18974;50.838;4.636;2023-04-12T07:59:56;11.60;99.90
32536;DHT22;18974;50.838;4.636;2023-04-12T08:02:22;11.90;99.90
32536;DHT22;18974;50.838;4.636;2023-04-12T08:04:52;12.10;99.90
32536;DHT22;18974;50.838;4.636;2023-04-12T08:07:18;12.10;99.90
32536;DHT22;18974;50.838;4.636;2023-04-12T08:09:43;12.20;99.90
32536;DHT22;18974;50.838;4.636;2023-04-12T08:12:09;12.20;99.90
32536;DHT22;18974;50.838;4.636;2023-04-12T08:14:35;12.10;99.90
32536;DHT22;18974;50.838;4.636;2023-04-12T08:17:01;12.10;99.90
32536;DHT22;18974;50.838;4.636;2023-04-12T08:19:27;12.10;99.90
32536;DHT22;18974;50.838;4.636;2023-04-12T08:21:53;12.00;99.90
32536;DHT22;18974;50.838;4.636;2023-04-12T08:24:18;12.00;99.90
32536;DHT22;18974;50.838;4.636;2023-04-12T08:26:45;12.00;99.90
32536;DHT22;18974;50.838;4.636;2023-04-12T08:29:11;11.90;99.90
32536;DHT22;18974;50.838;4.636;2023-04-12T08:31:37;11.90;99.90
32536;DHT22;18974;50.838;4.636;2023-04-12T08:34:03;12.00;99.90
32536;DHT22;18974;50.838;4.636;2023-04-12T08:36:29;12.30;99.90
32536;DHT22;18974;50.838;4.636;2023-04-12T08:38:59;12.40;99.90
32536;DHT22;18974;50.838;4.636;2023-04-12T08:41:25;12.60;99.90
32536;DHT22;18974;50.838;4.636;2023-04-12T08:43:51;12.90;99.90
32536;DHT22;18974;50.838;4.636;2023-04-12T08:46:17;13.10;99.90
32536;DHT22;18974;50.838;4.636;2023-04-12T08:48:50;13.30;99.90
32536;DHT22;18974;50.838;4.636;2023-04-12T08:51:20;13.70;99.90
32536;DHT22;18974;50.838;4.636;2023-04-12T08:53:46;13.60;99.90
32536;DHT22;18974;50.838;4.636;2023-04-12T08:56:13;13.70;99.90
32536;DHT22;18974;50.838;4.636;2023-04-12T08:58:42;13.80;99.90
32536;DHT22;18974;50.838;4.636;2023-04-12T09:01:13;13.90;99.90
32536;DHT22;18974;50.838;4.636;2023-04-12T09:03:40;13.90;99.90
32536;DHT22;18974;50.838;4.636;2023-04-12T09:06:07;13.80;99.90
32536;DHT22;18974;50.838;4.636;2023-04-12T09:08:33;13.90;99.90
32536;DHT22;18974;50.838;4.636;2023-04-12T09:10:59;13.80;99.90
32536;DHT22;18974;50.838;4.636;2023-04-12T09:13:32;13.70;99.90
32536;DHT22;18974;50.838;4.636;2023-04-12T09:15:58;13.70;99.90
32536;DHT22;18974;50.838;4.636;2023-04-12T09:18:24;13.70;99.90
32536;DHT22;18974;50.838;4.636;2023-04-12T09:21:05;13.90;99.90
32536;DHT22;18974;50.838;4.636;2023-04-12T09:23:32;14.10;99.90
32536;DHT22;18974;50.838;4.636;2023-04-12T09:26:00;14.20;99.90
32536;DHT22;18974;50.838;4.636;2023-04-12T09:28:27;14.30;99.90
32536;DHT22;18974;50.838;4.636;2023-04-12T09:30:56;14.40;99.90
32536;DHT22;18974;50.838;4.636;2023-04-12T09:33:35;14.40;99.90
32536;DHT22;18974;50.838;4.636;2023-04-12T09:36:05;14.30;99.90
32536;DHT22;18974;50.838;4.636;2023-04-12T09:38:33;14.40;99.90
32536;DHT22;18974;50.838;4.636;2023-04-12T09:41:18;14.40;99.90
32536;DHT22;18974;50.838;4.636;2023-04-12T09:43:44;14.30;99.90
32536;DHT22;18974;50.838;4.636;2023-04-12T09:46:12;14.20;99.90
32536;DHT22;18974;50.838;4.636;2023-04-12T09:48:39;13.80;99.90
32536;DHT22;18974;50.838;4.636;2023-04-12T09:51:06;13.40;99.90
32536;DHT22;18974;50.838;4.636;2023-04-12T09:53:33;13.40;99.90
32536;DHT22;18974;50.838;4.636;2023-04-12T09:56:02;13.60;99.90
32536;DHT22;18974;50.838;4.636;2023-04-12T09:58:30;13.70;99.90
32536;DHT22;18974;50.838;4.636;2023-04-12T10:00:59;13.70;99.90
32536;DHT22;18974;50.838;4.636;2023-04-12T10:03:26;13.60;99.90
32536;DHT22;18974;50.838;4.636;2023-04-12T10:05:53;13.60;99.90
32536;DHT22;18974;50.838;4.636;2023-04-12T10:08:23;13.70;99.90
32536;DHT22;18974;50.838;4.636;2023-04-12T10:10:50;13.80;99.90
32536;DHT22;18974;50.838;4.636;2023-04-12T10:13:16;14.00;99.90
32536;DHT22;18974;50.838;4.636;2023-04-12T10:15:44;14.40;99.90
32536;DHT22;18974;50.838;4.636;2023-04-12T10:18:13;14.50;99.90
32536;DHT22;18974;50.838;4.636;2023-04-12T10:20:39;14.20;99.90
32536;DHT22;18974;50.838;4.636;2023-04-12T10:23:07;13.80;99.90
32536;DHT22;18974;50.838;4.636;2023-04-12T10:25:33;13.30;99.90
32536;DHT22;18974;50.838;4.636;2023-04-12T10:28:17;13.10;99.90
32536;DHT22;18974;50.838;4.636;2023-04-12T10:30:43;13.30;99.90
32536;DHT22;18974;50.838;4.636;2023-04-12T10:33:13;13.50;99.90
32536;DHT22;18974;50.838;4.636;2023-04-12T10:35:48;13.70;99.90
32536;DHT22;18974;50.838;4.636;2023-04-12T10:38:15;13.90;99.90
32536;DHT22;18974;50.838;4.636;2023-04-12T10:43:31;14.00;99.90
32536;DHT22;18974;50.838;4.636;2023-04-12T10:45:57;14.00;99.90
32536;DHT22;18974;50.838;4.636;2023-04-12T10:48:38;14.00;99.90
32536;DHT22;18974;50.838;4.636;2023-04-12T10:51:14;14.10;99.90
32536;DHT22;18974;50.838;4.636;2023-04-12T10:53:43;14.00;99.90
32536;DHT22;18974;50.838;4.636;2023-04-12T10:59:01;13.10;99.90
32536;DHT22;18974;50.838;4.636;2023-04-12T11:01:27;13.00;99.90
32536;DHT22;18974;50.838;4.636;2023-04-12T11:06:47;13.00;99.90
32536;DHT22;18974;50.838;4.636;2023-04-12T11:11:51;12.90;99.90
32536;DHT22;18974;50.838;4.636;2023-04-12T11:14:26;13.00;99.90
32536;DHT22;18974;50.838;4.636;2023-04-12T11:19:36;13.30;99.90
32536;DHT22;18974;50.838;4.636;2023-04-12T11:22:06;13.50;99.90
32536;DHT22;18974;50.838;4.636;2023-04-12T11:24:32;13.70;99.90
32536;DHT22;18974;50.838;4.636;2023-04-12T11:26:58;13.90;99.90
32536;DHT22;18974;50.838;4.636;2023-04-12T11:29:28;14.30;99.90
32536;DHT22;18974;50.838;4.636;2023-04-12T11:31:54;14.50;99.90
32536;DHT22;18974;50.838;4.636;2023-04-12T11:34:21;14.60;99.90
32536;DHT22;18974;50.838;4.636;2023-04-12T11:36:53;14.50;99.90
32536;DHT22;18974;50.838;4.636;2023-04-12T11:39:20;14.60;99.90
32536;DHT22;18974;50.838;4.636;2023-04-12T11:41:47;14.10;99.90
32536;DHT22;18974;50.838;4.636;2023-04-12T11:44:14;14.00;99.90
32536;DHT22;18974;50.838;4.636;2023-04-12T11:46:43;14.00;99.90
32536;DHT22;18974;50.838;4.636;2023-04-12T11:49:09;14.00;99.90
32536;DHT22;18974;50.838;4.636;2023-04-12T11:51:35;14.20;99.90
32536;DHT22;18974;50.838;4.636;2023-04-12T11:54:01;14.60;99.90
32536;DHT22;18974;50.838;4.636;2023-04-12T11:56:28;14.70;99.90
32536;DHT22;18974;50.838;4.636;2023-04-12T11:58:53;15.00;99.90
32536;DHT22;18974;50.838;4.636;2023-04-12T12:01:20;14.90;99.90
32536;DHT22;18974;50.838;4.636;2023-04-12T12:03:47;14.70;99.90
32536;DHT22;18974;50.838;4.636;2023-04-12T12:06:14;14.60;99.90
32536;DHT22;18974;50.838;4.636;2023-04-12T12:08:41;14.10;99.90
32536;DHT22;18974;50.838;4.636;2023-04-12T12:11:07;14.10;99.90
32536;DHT22;18974;50.838;4.636;2023-04-12T12:13:46;14.00;99.90
32536;DHT22;18974;50.838;4.636;2023-04-12T12:16:12;13.00;99.90
32536;DHT22;18974;50.838;4.636;2023-04-12T12:18:42;12.30;99.90
32536;DHT22;18974;50.838;4.636;2023-04-12T12:21:09;11.50;99.90
32536;DHT22;18974;50.838;4.636;2023-04-12T12:23:35;11.10;99.90
32536;DHT22;18974;50.838;4.636;2023-04-12T12:26:02;10.70;99.90
32536;DHT22;18974;50.838;4.636;2023-04-12T12:28:29;10.90;99.90
32536;DHT22;18974;50.838;4.636;2023-04-12T12:30:56;11.40;99.90
32536;DHT22;18974;50.838;4.636;2023-04-12T12:33:22;12.20;99.90
32536;DHT22;18974;50.838;4.636;2023-04-12T12:35:57;12.40;99.90
32536;DHT22;18974;50.838;4.636;2023-04-12T12:38:23;12.30;99.90
32536;DHT22;18974;50.838;4.636;2023-04-12T12:40:49;12.40;99.90
32536;DHT22;18974;50.838;4.636;2023-04-12T12:43:19;12.30;99.90
32536;DHT22;18974;50.838;4.636;2023-04-12T12:45:45;12.20;99.90
32536;DHT22;18974;50.838;4.636;2023-04-12T12:48:11;11.70;99.90
32536;DHT22;18974;50.838;4.636;2023-04-12T12:50:37;11.30;99.90
32536;DHT22;18974;50.838;4.636;2023-04-12T12:53:04;11.30;99.90
32536;DHT22;18974;50.838;4.636;2023-04-12T12:55:31;11.10;99.90
32536;DHT22;18974;50.838;4.636;2023-04-12T12:57:57;11.20;99.90
32536;DHT22;18974;50.838;4.636;2023-04-12T13:00:26;11.20;99.90
32536;DHT22;18974;50.838;4.636;2023-04-12T13:02:52;11.30;99.90
32536;DHT22;18974;50.838;4.636;2023-04-12T13:05:19;11.30;99.90
32536;DHT22;18974;50.838;4.636;2023-04-12T13:07:45;11.40;99.90
32536;DHT22;18974;50.838;4.636;2023-04-12T13:10:11;11.60;99.90
32536;DHT22;18974;50.838;4.636;2023-04-12T13:12:37;12.00;99.90
32536;DHT22;18974;50.838;4.636;2023-04-12T13:15:02;12.30;99.90
32536;DHT22;18974;50.838;4.636;2023-04-12T13:17:29;12.70;99.90
32536;DHT22;18974;50.838;4.636;2023-04-12T13:19:55;12.90;99.90
32536;DHT22;18974;50.838;4.636;2023-04-12T13:22:21;12.70;99.90
32536;DHT22;18974;50.838;4.636;2023-04-12T13:24:48;12.50;99.90
32536;DHT22;18974;50.838;4.636;2023-04-12T13:27:14;12.50;99.90
32536;DHT22;18974;50.838;4.636;2023-04-12T13:29:40;12.60;99.90
32536;DHT22;18974;50.838;4.636;2023-04-12T13:32:06;12.70;99.90
32536;DHT22;18974;50.838;4.636;2023-04-12T13:34:32;12.70;99.90
32536;DHT22;18974;50.838;4.636;2023-04-12T13:36:58;12.70;99.90
32536;DHT22;18974;50.838;4.636;2023-04-12T13:39:24;12.70;99.90
32536;DHT22;18974;50.838;4.636;2023-04-12T13:41:50;12.70;99.90
32536;DHT22;18974;50.838;4.636;2023-04-12T13:44:16;12.50;99.90
32536;DHT22;18974;50.838;4.636;2023-04-12T13:46:42;12.50;99.90
32536;DHT22;18974;50.838;4.636;2023-04-12T13:49:08;12.40;99.90
32536;DHT22;18974;50.838;4.636;2023-04-12T13:51:33;12.20;99.90
32536;DHT22;18974;50.838;4.636;2023-04-12T13:53:59;12.30;99.90
32536;DHT22;18974;50.838;4.636;2023-04-12T13:56:24;12.30;99.90
32536;DHT22;18974;50.838;4.636;2023-04-12T13:58:50;12.30;99.90
32536;DHT22;18974;50.838;4.636;2023-04-12T14:01:16;12.30;99.90
32536;DHT22;18974;50.838;4.636;2023-04-12T14:03:43;12.30;99.90
32536;DHT22;18974;50.838;4.636;2023-04-12T14:06:08;12.30;99.90
32536;DHT22;18974;50.838;4.636;2023-04-12T14:08:34;12.20;99.90
32536;DHT22;18974;50.838;4.636;2023-04-12T14:11:01;12.10;99.90
32536;DHT22;18974;50.838;4.636;2023-04-12T14:13:27;11.50;99.90
32536;DHT22;18974;50.838;4.636;2023-04-12T14:15:53;11.10;99.90
32536;DHT22;18974;50.838;4.636;2023-04-12T14:18:19;10.60;99.90
32536;DHT22;18974;50.838;4.636;2023-04-12T14:20:49;10.30;99.90
32536;DHT22;18974;50.838;4.636;2023-04-12T14:23:17;10.20;99.90
32536;DHT22;18974;50.838;4.636;2023-04-12T14:25:43;10.20;99.90
32536;DHT22;18974;50.838;4.636;2023-04-12T14:28:09;10.30;99.90
32536;DHT22;18974;50.838;4.636;2023-04-12T14:30:34;10.40;99.90
32536;DHT22;18974;50.838;4.636;2023-04-12T14:33:00;10.80;99.90
32536;DHT22;18974;50.838;4.636;2023-04-12T14:35:26;11.20;99.90
32536;DHT22;18974;50.838;4.636;2023-04-12T14:37:51;11.60;99.90
32536;DHT22;18974;50.838;4.636;2023-04-12T14:40:17;11.80;99.90
32536;DHT22;18974;50.838;4.636;2023-04-12T14:42:43;12.20;99.90
32536;DHT22;18974;50.838;4.636;2023-04-12T14:45:09;12.50;99.90
32536;DHT22;18974;50.838;4.636;2023-04-12T14:47:35;12.70;99.90
32536;DHT22;18974;50.838;4.636;2023-04-12T14:50:04;12.80;99.90
32536;DHT22;18974;50.838;4.636;2023-04-12T14:52:30;12.50;99.90
32536;DHT22;18974;50.838;4.636;2023-04-12T14:54:56;12.40;99.90
32536;DHT22;18974;50.838;4.636;2023-04-12T14:57:21;12.40;99.90
32536;DHT22;18974;50.838;4.636;2023-04-12T14:59:47;12.40;99.90
32536;DHT22;18974;50.838;4.636;2023-04-12T15:02:13;12.40;99.90
32536;DHT22;18974;50.838;4.636;2023-04-12T15:04:38;12.40;99.90
32536;DHT22;18974;50.838;4.636;2023-04-12T15:07:04;12.50;99.90
32536;DHT22;18974;50.838;4.636;2023-04-12T15:09:30;12.50;99.90
32536;DHT22;18974;50.838;4.636;2023-04-12T15:11:55;12.40;99.90
32536;DHT22;18974;50.838;4.636;2023-04-12T15:14:26;12.30;99.90
32536;DHT22;18974;50.838;4.636;2023-04-12T15:16:52;12.40;99.90
32536;DHT22;18974;50.838;4.636;2023-04-12T15:19:20;12.40;99.90
32536;DHT22;18974;50.838;4.636;2023-04-12T15:21:49;12.40;99.90
32536;DHT22;18974;50.838;4.636;2023-04-12T15:24:18;12.50;99.90
32536;DHT22;18974;50.838;4.636;2023-04-12T15:26:45;12.40;99.90
32536;DHT22;18974;50.838;4.636;2023-04-12T15:29:13;12.50;99.90
32536;DHT22;18974;50.838;4.636;2023-04-12T15:31:39;12.50;99.90
32536;DHT22;18974;50.838;4.636;2023-04-12T15:34:05;12.50;99.90
32536;DHT22;18974;50.838;4.636;2023-04-12T15:36:31;12.50;99.90
32536;DHT22;18974;50.838;4.636;2023-04-12T15:39:04;12.50;99.90
32536;DHT22;18974;50.838;4.636;2023-04-12T15:41:35;12.40;99.90
32536;DHT22;18974;50.838;4.636;2023-04-12T15:44:06;12.30;99.90
32536;DHT22;18974;50.838;4.636;2023-04-12T15:46:33;12.30;99.90
32536;DHT22;18974;50.838;4.636;2023-04-12T15:48:59;12.40;99.90
32536;DHT22;18974;50.838;4.636;2023-04-12T15:51:25;12.40;99.90
32536;DHT22;18974;50.838;4.636;2023-04-12T15:53:52;12.40;99.90
32536;DHT22;18974;50.838;4.636;2023-04-12T15:56:18;12.70;99.90
32536;DHT22;18974;50.838;4.636;2023-04-12T15:58:53;12.80;99.90
32536;DHT22;18974;50.838;4.636;2023-04-12T16:01:21;12.80;99.90